KBHB

Hancock County-Bar Harbor Airport

Bar Harbor, Maine, USA
METAR KBHB 190056Z AUTO 30007G14KT 270V330 10SM CLR M06/M10 A2982 RMK AO2 SLP101 T10611100 FZRANO
Observed Flight Rules
Dec-19 @ 00:56 UTC (an hour ago) Visual Flight Rules
Wind Visibility Clouds
300° at 7 knots
 Gusting to 14 knots
10 miles
  • Clear skies
Temperatures Readings
Current -6°C / 21°F
Dewpoint -10°C / 14°F
Humidity 74%
Altimeter 29.82" Hg
Pressure 1010.1 hPa
Elevation 26
METAR KBHB 190056Z AUTO 30007G14KT 270V330 10SM CLR M06/M10 A2982 RMK AO2 SLP101 T10611100 FZRANO
Observed Flight Rules
Dec-19 @ 00:56 UTC
(an hour ago)
VFR
Wind Visibility
300° at 7 knots
 Gusting to 14 knots
10 miles
Clouds
  • Clear skies
Temperature Dewpoint
-6°C / 21°F -10°C / 14°F
Humidity Altimeter Pressure
74% 29.82" Hg 1010.1 hPa